Time;durP1;ratioP1;P1;durP2;ratioP2;P2;SDS_P1;SDS_P2;PMS_P1;PMS_P2;Temp;Humidity;BMP_temperature;BMP_pressure;BME280_temperature;BME280_humidity;BME280_pressure;Samples;Min_cycle;Max_cycle;Signal;HPM_P1;HPM_P2
2019/04/22 00:01:27;;;;;;;9;4.4;;;;;;;9.13;46.4873;957.4052;;;;
2019/04/22 00:03:52;;;;;;;5.7;4.1;;;;;;;9.1;47.25488;957.3699;;;;
2019/04/22 00:06:17;;;;;;;5.2;3.8;;;;;;;8.97;49.56348;957.3362;;;;
2019/04/22 00:08:42;;;;;;;5.9;4.1;;;;;;;8.94;49.57031;957.31;;;;
2019/04/22 00:11:07;;;;;;;4.8;4;;;;;;;8.99;46.83887;957.3053;;;;
2019/04/22 00:13:33;;;;;;;6.3;4.2;;;;;;;8.95;48.88184;957.2748;;;;
2019/04/22 00:16:00;;;;;;;4.8;4.1;;;;;;;8.88;47.19434;957.1423;;;;
2019/04/22 00:18:25;;;;;;;6.9;4.1;;;;;;;8.9;47.3125;957.1358;;;;
2019/04/22 00:20:51;;;;;;;4.8;4;;;;;;;8.84;48.45605;957.1708;;;;
2019/04/22 00:23:16;;;;;;;5.7;4.5;;;;;;;8.72;52.01367;957.09;;;;
2019/04/22 00:25:41;;;;;;;6.5;4.8;;;;;;;8.69;52.49316;957.1061;;;;
2019/04/22 00:28:27;;;;;;;5.5;4.3;;;;;;;8.65;52.71875;957.0804;;;;
2019/04/22 00:30:59;;;;;;;5.7;4.2;;;;;;;8.61;53.67871;957.05;;;;
2019/04/22 00:33:17;;;;;;;6.4;4.3;;;;;;;8.52;52.34668;957.0298;;;;
2019/04/22 00:35:42;;;;;;;6.4;4.1;;;;;;;8.54;53.45215;957.0739;;;;
2019/04/22 00:38:15;;;;;;;7.6;4.4;;;;;;;8.46;53.1084;957.0784;;;;
2019/04/22 00:40:40;;;;;;;5.4;4.3;;;;;;;8.29;55.23438;957.0225;;;;
2019/04/22 00:43:26;;;;;;;5;4;;;;;;;8.22;55.17969;957.0508;;;;
2019/04/22 00:45:53;;;;;;;6.1;4.1;;;;;;;8.24;53.82813;957.0876;;;;
2019/04/22 00:48:18;;;;;;;7.5;4.7;;;;;;;8.11;54.23633;957.0242;;;;
2019/04/22 00:50:43;;;;;;;7.3;4.5;;;;;;;8.04;53.7793;957.0181;;;;
2019/04/22 00:53:09;;;;;;;5.5;4.3;;;;;;;7.95;54.49121;957.0655;;;;
2019/04/22 00:55:35;;;;;;;6.8;4.3;;;;;;;7.95;53.59668;957.0273;;;;
2019/04/22 00:58:01;;;;;;;6.8;4.3;;;;;;;7.92;53.15625;956.9792;;;;
2019/04/22 01:00:25;;;;;;;5.4;4.2;;;;;;;7.89;53.15234;956.9442;;;;
2019/04/22 01:02:55;;;;;;;6.5;4.6;;;;;;;7.79;54.16211;956.9494;;;;
2019/04/22 01:05:20;;;;;;;9.1;4.5;;;;;;;7.66;54.35254;956.8094;;;;
2019/04/22 01:07:46;;;;;;;5.4;4.4;;;;;;;7.6;55.62695;956.7985;;;;
2019/04/22 01:10:12;;;;;;;6.7;4.8;;;;;;;7.54;54.74902;956.7401;;;;
2019/04/22 01:12:40;;;;;;;5.3;4.1;;;;;;;7.55;54.01563;956.795;;;;
2019/04/22 01:15:12;;;;;;;7.4;4.4;;;;;;;7.53;56.19141;956.7456;;;;
2019/04/22 01:17:37;;;;;;;9.5;5;;;;;;;7.42;61.29785;956.6923;;;;
2019/04/22 01:20:02;;;;;;;5.5;4.7;;;;;;;7.45;59.52637;956.6767;;;;
2019/04/22 01:22:27;;;;;;;6.9;4.6;;;;;;;7.44;60.01758;956.6058;;;;
2019/04/22 01:24:54;;;;;;;7.3;4.8;;;;;;;7.42;59.80859;956.6119;;;;
2019/04/22 01:27:19;;;;;;;6.7;4.3;;;;;;;7.45;59.29688;956.6433;;;;
2019/04/22 01:29:45;;;;;;;6.3;4.7;;;;;;;7.41;58.74121;956.6088;;;;
2019/04/22 01:32:10;;;;;;;5.9;4.6;;;;;;;7.44;58.07031;956.5676;;;;
2019/04/22 01:34:35;;;;;;;5.5;4.6;;;;;;;7.4;60.35449;956.5977;;;;
2019/04/22 01:37:02;;;;;;;6.6;4.8;;;;;;;7.42;60.9082;956.561;;;;
2019/04/22 01:39:27;;;;;;;7.3;5;;;;;;;7.41;60.99805;956.5069;;;;
2019/04/22 01:41:52;;;;;;;7;4.7;;;;;;;7.43;62.07715;956.4878;;;;
2019/04/22 01:44:17;;;;;;;6.7;4.9;;;;;;;7.38;61.80566;956.4422;;;;
2019/04/22 01:46:42;;;;;;;7.7;5.1;;;;;;;7.36;62.70898;956.4183;;;;
2019/04/22 01:49:07;;;;;;;7.9;4.9;;;;;;;7.42;62.22559;956.3613;;;;
2019/04/22 01:51:32;;;;;;;8.1;5.6;;;;;;;7.39;62.32422;956.322;;;;
2019/04/22 01:53:57;;;;;;;6.5;5.2;;;;;;;7.45;60.14453;956.2653;;;;
2019/04/22 01:56:22;;;;;;;5.9;5;;;;;;;7.68;60.19922;956.2983;;;;
2019/04/22 01:58:47;;;;;;;9.3;5;;;;;;;7.88;55.06641;956.2569;;;;
2019/04/22 02:01:20;;;;;;;7.1;5.2;;;;;;;8.01;55.04883;956.1547;;;;
2019/04/22 02:03:46;;;;;;;7.5;5.3;;;;;;;8.16;52.64746;956.1609;;;;
2019/04/22 02:06:11;;;;;;;7.8;5.9;;;;;;;8.45;51.50098;956.1397;;;;
2019/04/22 02:08:53;;;;;;;8.4;5.7;;;;;;;8.67;50.36719;956.0999;;;;
2019/04/22 02:11:18;;;;;;;6.5;5.8;;;;;;;8.86;49.87012;956.1153;;;;
2019/04/22 02:13:43;;;;;;;9;5.8;;;;;;;9.09;48.9082;956.0697;;;;
2019/04/22 02:16:08;;;;;;;9.3;6;;;;;;;9.14;49.04004;956.0305;;;;
2019/04/22 02:18:36;;;;;;;8;5.8;;;;;;;9.29;48.59863;956.0221;;;;
2019/04/22 02:21:01;;;;;;;8.5;5.8;;;;;;;9.21;48.69238;956.0142;;;;
2019/04/22 02:23:41;;;;;;;8.3;6.2;;;;;;;9.3;48.72461;955.992;;;;
2019/04/22 02:26:07;;;;;;;7.4;6.2;;;;;;;9.31;48.64551;955.9018;;;;
2019/04/22 02:28:32;;;;;;;8.3;5.8;;;;;;;9.38;47.92871;955.9199;;;;
2019/04/22 02:30:57;;;;;;;8.6;5.7;;;;;;;9.31;48.31152;955.889;;;;
2019/04/22 02:33:24;;;;;;;9.2;5.8;;;;;;;9.32;47.85352;955.9256;;;;
2019/04/22 02:35:49;;;;;;;8.2;5.5;;;;;;;9.28;48.41211;955.9089;;;;
2019/04/22 02:38:15;;;;;;;8.1;6.2;;;;;;;9.22;48.7168;955.9275;;;;
2019/04/22 02:40:40;;;;;;;7.7;5.6;;;;;;;9.15;49.35254;955.8589;;;;
2019/04/22 02:43:06;;;;;;;8.6;5.8;;;;;;;9.15;48.68555;955.8541;;;;
2019/04/22 02:45:31;;;;;;;7.5;5.9;;;;;;;9.17;48.61816;955.8055;;;;
2019/04/22 02:47:58;;;;;;;7.8;5.6;;;;;;;9.17;48.96484;955.7712;;;;
2019/04/22 02:50:23;;;;;;;7.3;5.8;;;;;;;9.15;48.57031;955.8158;;;;
2019/04/22 02:52:49;;;;;;;8.1;5.9;;;;;;;9.16;48.21484;955.7297;;;;
2019/04/22 02:55:18;;;;;;;7.9;5.9;;;;;;;9.12;49.0498;955.6794;;;;
2019/04/22 02:57:45;;;;;;;9.8;6;;;;;;;9.01;49.35938;955.6309;;;;
2019/04/22 03:00:10;;;;;;;7.4;5.6;;;;;;;9.09;48.83984;955.5719;;;;
2019/04/22 03:02:35;;;;;;;9;6;;;;;;;9.15;49.00781;955.5859;;;;
2019/04/22 03:05:04;;;;;;;7.9;6;;;;;;;9.13;48.55664;955.5798;;;;
2019/04/22 03:07:29;;;;;;;7.4;5.8;;;;;;;9.07;48.72363;955.5648;;;;
2019/04/22 03:10:03;;;;;;;9;6;;;;;;;8.93;49.17773;955.5544;;;;
2019/04/22 03:12:30;;;;;;;8.6;6.3;;;;;;;9;49.02539;955.5641;;;;
2019/04/22 03:14:55;;;;;;;8.1;5.7;;;;;;;8.94;49.07617;955.498;;;;
2019/04/22 03:17:23;;;;;;;8.6;5.8;;;;;;;8.85;49.24902;955.4523;;;;
2019/04/22 03:19:48;;;;;;;8;5.9;;;;;;;8.91;49.2334;955.4589;;;;
2019/04/22 03:22:13;;;;;;;7;5.8;;;;;;;8.89;49.63379;955.4475;;;;
2019/04/22 03:24:39;;;;;;;7.2;5.9;;;;;;;8.87;49.32031;955.4166;;;;
2019/04/22 03:27:05;;;;;;;7.3;5.7;;;;;;;8.9;49.3584;955.5025;;;;
2019/04/22 03:29:30;;;;;;;8.9;5.4;;;;;;;8.84;49.3291;955.4189;;;;
2019/04/22 03:32:06;;;;;;;8.7;5.7;;;;;;;8.75;49.55957;955.4286;;;;
2019/04/22 03:34:31;;;;;;;9.6;5.6;;;;;;;8.64;50.11035;955.3379;;;;
2019/04/22 03:36:56;;;;;;;8.6;5.8;;;;;;;8.5;52.11523;955.4249;;;;
2019/04/22 03:39:21;;;;;;;8.6;5.7;;;;;;;8.33;51.83008;955.383;;;;
2019/04/22 03:41:46;;;;;;;7.4;6.1;;;;;;;8.24;52.32422;955.3757;;;;
2019/04/22 03:44:11;;;;;;;7.5;5.8;;;;;;;8.16;52.18848;955.3334;;;;
2019/04/22 03:46:36;;;;;;;7.1;5.4;;;;;;;7.98;52.91211;955.3553;;;;
2019/04/22 03:49:02;;;;;;;8.6;5.8;;;;;;;7.86;53.17285;955.3286;;;;
2019/04/22 03:51:27;;;;;;;7.7;5.9;;;;;;;7.78;53.57617;955.2773;;;;
2019/04/22 03:53:53;;;;;;;7.9;5.7;;;;;;;7.73;53.68359;955.236;;;;
2019/04/22 03:56:21;;;;;;;7.9;5.8;;;;;;;7.7;53.80566;955.3408;;;;
2019/04/22 03:58:47;;;;;;;8;5.9;;;;;;;7.57;57.14844;955.2985;;;;
2019/04/22 04:02:31;;;;;;;9.1;6.4;;;;;;;7.51;59.86621;955.2407;;;;
2019/04/22 04:04:56;;;;;;;7.6;6.1;;;;;;;7.36;59.07715;955.2355;;;;
2019/04/22 04:07:21;;;;;;;7.5;6.1;;;;;;;7.34;59.56836;955.2319;;;;
2019/04/22 04:09:51;;;;;;;8.7;6.3;;;;;;;7.29;60.5459;955.2206;;;;
2019/04/22 04:12:16;;;;;;;8;5.9;;;;;;;7.27;60.56641;955.2565;;;;
2019/04/22 04:14:41;;;;;;;7.5;6.3;;;;;;;7.18;61.64063;955.2489;;;;
2019/04/22 04:17:06;;;;;;;7.9;6.1;;;;;;;7.14;62.68848;955.1891;;;;
2019/04/22 04:19:31;;;;;;;8.7;6.4;;;;;;;7.08;63.03516;955.2325;;;;
2019/04/22 04:21:56;;;;;;;9.3;6.4;;;;;;;7.05;62.9043;955.2188;;;;
2019/04/22 04:24:21;;;;;;;7.4;6.4;;;;;;;7.03;61.43652;955.2161;;;;
2019/04/22 04:26:48;;;;;;;9.7;6.1;;;;;;;7.04;61.35645;955.1946;;;;
2019/04/22 04:29:13;;;;;;;7.5;5.9;;;;;;;7;61.1582;955.1898;;;;
2019/04/22 04:31:41;;;;;;;9;6.4;;;;;;;7.02;61.99512;955.1883;;;;
2019/04/22 04:34:06;;;;;;;8.3;6;;;;;;;6.98;61.48633;955.1833;;;;
2019/04/22 04:36:31;;;;;;;7.9;6;;;;;;;7.01;59.36133;955.2185;;;;
2019/04/22 04:38:57;;;;;;;9;6.6;;;;;;;7.05;61.89844;955.1973;;;;
2019/04/22 04:41:22;;;;;;;8.1;6.4;;;;;;;7.07;62.73535;955.1917;;;;
2019/04/22 04:43:49;;;;;;;8.8;6.5;;;;;;;7.09;63.44727;955.215;;;;
2019/04/22 04:46:14;;;;;;;9.1;6.3;;;;;;;7.18;61.9834;955.2108;;;;
2019/04/22 04:48:39;;;;;;;8;6.2;;;;;;;7.3;60.30664;955.2111;;;;
2019/04/22 04:51:04;;;;;;;8.7;6.7;;;;;;;7.4;58.6709;955.1457;;;;
2019/04/22 04:53:29;;;;;;;9.1;6.3;;;;;;;7.49;58.12207;955.1501;;;;
2019/04/22 04:55:55;;;;;;;11.3;6.5;;;;;;;7.52;58.5625;955.193;;;;
2019/04/22 04:58:19;;;;;;;9.9;6.4;;;;;;;7.58;57.79102;955.132;;;;
2019/04/22 05:00:44;;;;;;;10.3;6.5;;;;;;;7.66;57.19434;955.1323;;;;
2019/04/22 05:03:32;;;;;;;8.5;6.1;;;;;;;7.77;56.58984;955.1763;;;;
2019/04/22 05:05:57;;;;;;;7.9;5.8;;;;;;;7.93;55.2334;955.1736;;;;
2019/04/22 05:08:22;;;;;;;8.3;6.4;;;;;;;7.97;54.99902;955.1817;;;;
2019/04/22 05:10:47;;;;;;;8;6;;;;;;;7.99;54.85156;955.188;;;;
2019/04/22 05:13:12;;;;;;;7.8;6.2;;;;;;;8.09;54.00391;955.1825;;;;
2019/04/22 05:15:37;;;;;;;7.9;6.2;;;;;;;8.25;53.86328;955.1868;;;;
2019/04/22 05:18:02;;;;;;;8.1;6.1;;;;;;;8.39;52.88379;955.1512;;;;
2019/04/22 05:20:27;;;;;;;8.2;6.4;;;;;;;8.56;52.15625;955.1897;;;;
2019/04/22 05:23:11;;;;;;;8;6;;;;;;;8.63;52.55566;955.1863;;;;
2019/04/22 05:25:39;;;;;;;7.8;5.9;;;;;;;8.74;51.90234;955.1624;;;;
2019/04/22 05:28:14;;;;;;;8.6;5.8;;;;;;;8.89;51.64453;955.1414;;;;
2019/04/22 05:30:42;;;;;;;6.9;5.6;;;;;;;8.98;50.81641;955.1108;;;;
2019/04/22 05:33:07;;;;;;;10.8;6.4;;;;;;;9.12;50.28027;955.1433;;;;
2019/04/22 05:35:40;;;;;;;6.5;5.5;;;;;;;9.22;49.59082;955.0937;;;;
2019/04/22 05:38:18;;;;;;;9.2;5.9;;;;;;;9.27;49.40039;955.0583;;;;
2019/04/22 05:40:43;;;;;;;7.8;5.9;;;;;;;9.4;49.19727;955.0187;;;;
2019/04/22 05:43:08;;;;;;;8.2;6.1;;;;;;;9.45;49.62891;955.009;;;;
2019/04/22 05:45:33;;;;;;;8.3;6;;;;;;;9.58;49.25195;955.0421;;;;
2019/04/22 05:47:58;;;;;;;7.6;5.4;;;;;;;9.66;49.14648;954.9531;;;;
2019/04/22 05:50:24;;;;;;;9.9;6.3;;;;;;;9.85;48.68359;955.0167;;;;
2019/04/22 05:52:49;;;;;;;7.8;5.8;;;;;;;9.87;48.45605;954.9933;;;;
2019/04/22 05:55:14;;;;;;;8.3;5.4;;;;;;;9.96;48.37402;954.9067;;;;
2019/04/22 05:57:39;;;;;;;7.1;5.5;;;;;;;10.04;47.93262;954.9453;;;;
2019/04/22 06:00:04;;;;;;;7.8;5.4;;;;;;;10.18;47.54492;954.9467;;;;
2019/04/22 06:02:29;;;;;;;6.1;5.3;;;;;;;10.3;47.06152;954.9717;;;;
2019/04/22 06:04:54;;;;;;;7.5;5.4;;;;;;;10.35;46.67676;954.9057;;;;
2019/04/22 06:07:19;;;;;;;9.1;5.4;;;;;;;10.43;47.26074;954.9444;;;;
2019/04/22 06:09:44;;;;;;;6.6;5.2;;;;;;;10.5;46.41504;954.9152;;;;
2019/04/22 06:12:09;;;;;;;6.5;5.1;;;;;;;10.56;46.36426;954.8738;;;;
2019/04/22 06:14:37;;;;;;;7.5;5.2;;;;;;;10.7;46.29785;954.9053;;;;
2019/04/22 06:17:03;;;;;;;6.9;5.3;;;;;;;10.72;46.86621;954.8901;;;;
2019/04/22 06:19:28;;;;;;;8.9;5.4;;;;;;;10.74;45.49414;954.8833;;;;
2019/04/22 06:21:53;;;;;;;5.9;5.1;;;;;;;10.85;45.14746;954.8674;;;;
2019/04/22 06:24:21;;;;;;;8.2;5.6;;;;;;;10.88;45.78516;954.9236;;;;
2019/04/22 06:26:46;;;;;;;8.1;5.5;;;;;;;11.06;45.12402;954.9361;;;;
2019/04/22 06:29:17;;;;;;;8.3;5.4;;;;;;;11.15;45.58398;954.9008;;;;
2019/04/22 06:31:42;;;;;;;7.8;5.7;;;;;;;11.2;44.7793;954.8995;;;;
2019/04/22 06:34:07;;;;;;;6;5.4;;;;;;;11.3;45.4375;954.7977;;;;
2019/04/22 06:36:32;;;;;;;7.3;5.5;;;;;;;11.4;45.64453;954.7731;;;;
2019/04/22 06:38:57;;;;;;;6.9;5.3;;;;;;;11.56;44.40039;954.6914;;;;
2019/04/22 06:41:23;;;;;;;8.9;5.4;;;;;;;11.65;44.67676;954.7397;;;;
2019/04/22 06:43:47;;;;;;;7.4;5.2;;;;;;;11.69;46.17383;954.7392;;;;
2019/04/22 06:46:13;;;;;;;8.5;5.4;;;;;;;11.94;44.8457;954.6542;;;;
2019/04/22 06:48:38;;;;;;;10.2;5.6;;;;;;;12.12;44.59668;954.6934;;;;
2019/04/22 06:51:15;;;;;;;7.3;5.2;;;;;;;12.28;44.25488;954.6269;;;;
2019/04/22 06:53:41;;;;;;;7.7;5.8;;;;;;;12.24;43.79883;954.5544;;;;
2019/04/22 06:56:06;;;;;;;7.9;5.4;;;;;;;12.39;44;954.5792;;;;
2019/04/22 06:58:31;;;;;;;7.2;5.3;;;;;;;12.43;44.45605;954.5826;;;;
2019/04/22 07:00:56;;;;;;;6.9;5.1;;;;;;;12.66;44.84961;954.5381;;;;
2019/04/22 07:03:21;;;;;;;7.7;5.6;;;;;;;12.8;43.24023;954.5558;;;;
2019/04/22 07:05:46;;;;;;;7.6;5.7;;;;;;;12.93;43.46289;954.4747;;;;
2019/04/22 07:08:12;;;;;;;8.9;5.4;;;;;;;12.91;43.73828;954.5327;;;;
2019/04/22 07:10:38;;;;;;;6.4;5.7;;;;;;;12.99;43.60742;954.5105;;;;
2019/04/22 07:13:05;;;;;;;7.1;5.5;;;;;;;13.16;43.39258;954.4205;;;;
2019/04/22 07:15:30;;;;;;;7.5;6.1;;;;;;;13.36;42.79688;954.3879;;;;
2019/04/22 07:17:59;;;;;;;7.4;5.9;;;;;;;13.5;43.29883;954.3739;;;;
2019/04/22 07:20:24;;;;;;;9.1;5.6;;;;;;;13.55;43.08203;954.3088;;;;
2019/04/22 07:22:49;;;;;;;8.2;5.9;;;;;;;13.8;42.23535;954.3113;;;;
2019/04/22 07:25:14;;;;;;;7.1;5.6;;;;;;;13.76;42.97559;954.2468;;;;
2019/04/22 07:27:41;;;;;;;7;5.1;;;;;;;13.8;41.27051;954.1816;;;;
2019/04/22 07:30:06;;;;;;;7.2;5.1;;;;;;;14.13;41.03418;954.1447;;;;
2019/04/22 07:32:34;;;;;;;6.6;5.4;;;;;;;14.11;42.10352;954.0861;;;;
2019/04/22 07:34:59;;;;;;;7.3;5.1;;;;;;;14.19;41.93555;954.0377;;;;
2019/04/22 07:37:25;;;;;;;8.3;5.2;;;;;;;14.33;41.23926;954.0712;;;;
2019/04/22 07:39:51;;;;;;;8.6;5.4;;;;;;;14.5;41.02148;954.0754;;;;
2019/04/22 07:42:18;;;;;;;6.8;5;;;;;;;14.67;40.73535;954.0447;;;;
2019/04/22 07:44:44;;;;;;;6.6;5;;;;;;;14.77;40.86133;954.0613;;;;
2019/04/22 07:47:08;;;;;;;8.9;5.1;;;;;;;15.03;40.45313;953.9288;;;;
2019/04/22 07:49:35;;;;;;;7.1;5.1;;;;;;;15.08;40.31836;954.0595;;;;
2019/04/22 07:52:00;;;;;;;7.6;5.3;;;;;;;15.09;39.66699;953.8859;;;;
2019/04/22 07:54:25;;;;;;;7;4.7;;;;;;;15.24;39.3418;953.9648;;;;
2019/04/22 07:56:52;;;;;;;6.8;4.9;;;;;;;15.43;39.33594;954.0255;;;;
2019/04/22 07:59:17;;;;;;;8.5;5.2;;;;;;;15.52;39.11133;953.9822;;;;
2019/04/22 08:01:42;;;;;;;6.3;5.1;;;;;;;15.59;39.24609;953.8958;;;;
2019/04/22 08:04:08;;;;;;;7.2;5.1;;;;;;;15.57;39.62891;953.9722;;;;
2019/04/22 08:06:35;;;;;;;6.8;5.1;;;;;;;15.72;39.1748;953.9093;;;;
2019/04/22 08:09:00;;;;;;;7;5.2;;;;;;;15.93;39.2998;953.9108;;;;
2019/04/22 08:11:25;;;;;;;6.9;5.2;;;;;;;16.03;39.07422;953.8716;;;;
2019/04/22 08:13:50;;;;;;;7;5.5;;;;;;;16.18;40.08105;953.8297;;;;
2019/04/22 08:16:15;;;;;;;6.7;5.1;;;;;;;16.23;38.87109;953.7784;;;;
2019/04/22 08:18:40;;;;;;;7.5;5.4;;;;;;;16.47;38.81055;953.7756;;;;
2019/04/22 08:21:05;;;;;;;7.2;4.7;;;;;;;16.61;38.30859;953.7733;;;;
2019/04/22 08:23:30;;;;;;;6.7;5.4;;;;;;;16.63;37.81738;953.771;;;;
2019/04/22 08:25:56;;;;;;;6.1;5.1;;;;;;;16.64;38.56738;953.6149;;;;
2019/04/22 08:28:23;;;;;;;7.1;5.1;;;;;;;16.93;38.06543;953.661;;;;
2019/04/22 08:30:53;;;;;;;7.6;5.3;;;;;;;16.91;37.45508;953.5598;;;;
2019/04/22 08:33:28;;;;;;;7.5;5.4;;;;;;;16.95;37.56445;953.593;;;;
2019/04/22 08:35:53;;;;;;;5.9;4.9;;;;;;;17.23;36.5332;953.5402;;;;
2019/04/22 08:38:30;;;;;;;6.2;5;;;;;;;17.44;37.69922;953.5622;;;;
2019/04/22 08:40:57;;;;;;;7.4;4.7;;;;;;;17.45;35.94238;953.4179;;;;
2019/04/22 08:43:22;;;;;;;7.2;4.8;;;;;;;17.6;35.19238;953.5173;;;;
2019/04/22 08:45:47;;;;;;;7.4;4.8;;;;;;;17.88;36.50586;953.438;;;;
2019/04/22 08:48:13;;;;;;;5.8;4.6;;;;;;;17.71;35.37598;953.5108;;;;
2019/04/22 08:50:38;;;;;;;6.4;4.7;;;;;;;17.81;36.26465;953.4827;;;;
2019/04/22 08:53:25;;;;;;;5.2;4.6;;;;;;;17.72;35.33105;953.4738;;;;
2019/04/22 08:55:50;;;;;;;6.5;4.8;;;;;;;18.09;35.07813;953.4905;;;;
2019/04/22 08:58:15;;;;;;;7.2;4.7;;;;;;;18.17;34.15723;953.4303;;;;
2019/04/22 09:00:41;;;;;;;7;4.7;;;;;;;18.17;35.67188;953.4433;;;;
2019/04/22 09:03:06;;;;;;;5.7;4.7;;;;;;;18.17;34.81445;953.3617;;;;
2019/04/22 09:05:32;;;;;;;6.9;4.4;;;;;;;18.09;34.69141;953.4077;;;;
2019/04/22 09:07:58;;;;;;;8.5;4.6;;;;;;;18.1;34.49219;953.4196;;;;
2019/04/22 09:10:23;;;;;;;5.2;4.5;;;;;;;18.2;34.53516;953.3365;;;;
2019/04/22 09:12:49;;;;;;;7.1;4.4;;;;;;;18.45;34.27246;953.2952;;;;
2019/04/22 09:15:14;;;;;;;8.2;4.5;;;;;;;18.83;33.32715;953.3814;;;;
2019/04/22 09:17:39;;;;;;;6.2;4.4;;;;;;;18.95;33.72461;953.2814;;;;
2019/04/22 09:20:04;;;;;;;8.1;4.7;;;;;;;18.98;33.06738;953.2078;;;;
2019/04/22 09:22:29;;;;;;;5.1;4.6;;;;;;;18.92;33.93359;953.1912;;;;
2019/04/22 09:24:54;;;;;;;6;5;;;;;;;19.33;33.44629;953.2416;;;;
2019/04/22 09:27:19;;;;;;;5.7;4.8;;;;;;;18.95;33.67773;953.2374;;;;
2019/04/22 09:29:44;;;;;;;6.5;5;;;;;;;19.4;33.80566;953.2612;;;;
2019/04/22 09:32:09;;;;;;;5.9;4.6;;;;;;;19.56;33.33496;953.2444;;;;
2019/04/22 09:34:37;;;;;;;5.4;4.7;;;;;;;19.98;34.25098;953.2075;;;;
2019/04/22 09:37:04;;;;;;;8.1;5;;;;;;;19.84;32.68359;953.2119;;;;
2019/04/22 09:39:30;;;;;;;7.7;4.9;;;;;;;19.76;33.83301;953.1586;;;;
2019/04/22 09:41:55;;;;;;;8.2;5.1;;;;;;;20.17;32.90918;953.1519;;;;
2019/04/22 09:44:19;;;;;;;6.7;4.9;;;;;;;20.42;32.72656;953.0698;;;;
2019/04/22 09:46:46;;;;;;;6.6;5.1;;;;;;;20.25;32.65527;953.0179;;;;
2019/04/22 09:49:11;;;;;;;6.9;5.3;;;;;;;20.28;32.43359;952.9652;;;;
2019/04/22 09:51:39;;;;;;;6.3;4.9;;;;;;;19.98;32.77734;952.8867;;;;
2019/04/22 09:54:04;;;;;;;5.9;4.9;;;;;;;20.41;32.96191;952.8719;;;;
2019/04/22 09:56:31;;;;;;;8.8;4.8;;;;;;;20.59;33.24707;952.8786;;;;
2019/04/22 09:58:56;;;;;;;6.8;5.4;;;;;;;20.7;31.85059;952.8304;;;;
2019/04/22 10:01:22;;;;;;;8.1;4.9;;;;;;;20.77;32.70605;952.7274;;;;
2019/04/22 10:03:47;;;;;;;7.7;5.1;;;;;;;20.56;31.26074;952.6754;;;;
2019/04/22 10:06:12;;;;;;;6.9;4.8;;;;;;;20.5;31.32813;952.6721;;;;
2019/04/22 10:08:37;;;;;;;6.2;4.8;;;;;;;20.56;32.52539;952.6312;;;;
2019/04/22 10:11:03;;;;;;;5.8;4.5;;;;;;;20.53;32.22754;952.6008;;;;
2019/04/22 10:13:29;;;;;;;6.5;5;;;;;;;20.53;31.30762;952.5411;;;;
2019/04/22 10:15:54;;;;;;;5.7;4.7;;;;;;;20.89;30.57617;952.54;;;;
2019/04/22 10:18:19;;;;;;;5.4;4.7;;;;;;;21.17;30.77246;952.478;;;;
2019/04/22 10:20:44;;;;;;;6.9;4.9;;;;;;;21.16;31.75293;952.4233;;;;
2019/04/22 10:23:11;;;;;;;7.1;4.9;;;;;;;21.64;30.1543;952.438;;;;
2019/04/22 10:25:36;;;;;;;6.7;4.8;;;;;;;21.76;30.7793;952.3439;;;;
2019/04/22 10:28:02;;;;;;;6.7;5;;;;;;;21.85;29.55371;952.368;;;;
2019/04/22 10:30:27;;;;;;;5.7;4.8;;;;;;;22.12;30.33008;952.3244;;;;
2019/04/22 10:32:52;;;;;;;6.2;4.7;;;;;;;22.1;29.59375;952.2837;;;;
2019/04/22 10:35:17;;;;;;;7.1;5.2;;;;;;;22.15;28.83887;952.1943;;;;
2019/04/22 10:37:42;;;;;;;5.5;4.9;;;;;;;22.55;28.53223;952.1583;;;;
2019/04/22 10:40:20;;;;;;;6.4;4.6;;;;;;;22.67;30.46191;952.147;;;;
2019/04/22 10:42:40;;;;;;;9.2;5;;;;;;;22.49;29.3584;952.0461;;;;
2019/04/22 10:45:08;;;;;;;5.1;4.5;;;;;;;22.7;28.11523;952.0335;;;;
2019/04/22 10:47:33;;;;;;;6.1;4.5;;;;;;;22.89;27.59277;952.0274;;;;
2019/04/22 10:49:58;;;;;;;7.8;5;;;;;;;22.78;27.93066;952.0494;;;;
2019/04/22 10:52:45;;;;;;;7.4;4.8;;;;;;;22.62;28.65625;951.8848;;;;
2019/04/22 10:55:11;;;;;;;8.5;5.2;;;;;;;22.96;28.19043;951.8505;;;;
2019/04/22 10:57:36;;;;;;;8.4;5.1;;;;;;;22.93;28.11719;951.8557;;;;
2019/04/22 11:00:02;;;;;;;5.9;5;;;;;;;23.52;26.9541;951.8602;;;;
2019/04/22 11:02:32;;;;;;;5.9;4.6;;;;;;;23.71;27.27539;951.7137;;;;
2019/04/22 11:04:57;;;;;;;10.4;5;;;;;;;23.51;27.5127;951.6694;;;;
2019/04/22 11:07:22;;;;;;;10;4.6;;;;;;;23.53;26.26563;951.7189;;;;
2019/04/22 11:09:47;;;;;;;5.5;4.5;;;;;;;23.26;26.42773;951.6682;;;;
2019/04/22 11:12:12;;;;;;;5.6;4.4;;;;;;;23.74;25.06543;951.6733;;;;
2019/04/22 11:14:38;;;;;;;6.7;4.8;;;;;;;23.93;25.71777;951.5984;;;;
2019/04/22 11:17:03;;;;;;;5.1;4.3;;;;;;;23.96;25.18457;951.4926;;;;
2019/04/22 11:19:28;;;;;;;6.7;4.5;;;;;;;23.66;25.47754;951.6002;;;;
2019/04/22 11:21:53;;;;;;;8.8;4.8;;;;;;;24.05;26.57031;951.4727;;;;
2019/04/22 11:24:18;;;;;;;8;4.9;;;;;;;24.41;25.60352;951.3786;;;;
2019/04/22 11:26:43;;;;;;;7.4;4.8;;;;;;;24.55;25.21777;951.3452;;;;
2019/04/22 11:29:10;;;;;;;8.4;4.8;;;;;;;24.34;25.59961;951.2988;;;;
2019/04/22 11:31:35;;;;;;;5.5;4.6;;;;;;;24.22;26.71094;951.2734;;;;
2019/04/22 11:34:02;;;;;;;7.3;4.3;;;;;;;24.41;25.26953;951.1955;;;;
2019/04/22 11:36:27;;;;;;;8.8;4.6;;;;;;;25.27;23.76758;951.1035;;;;
2019/04/22 11:38:52;;;;;;;7.1;4.6;;;;;;;25;24.20605;951.1342;;;;
2019/04/22 11:41:17;;;;;;;9.3;4.7;;;;;;;24.87;22.98242;951.198;;;;
2019/04/22 11:43:42;;;;;;;5.6;4;;;;;;;24.8;23.20605;951.1227;;;;
2019/04/22 11:46:10;;;;;;;6.7;4.2;;;;;;;24.41;23.53125;951.0569;;;;
2019/04/22 11:48:35;;;;;;;5.9;4.3;;;;;;;24.26;23.78516;951.065;;;;
2019/04/22 11:51:01;;;;;;;6;4;;;;;;;24.65;22.79297;951.045;;;;
2019/04/22 11:53:27;;;;;;;5.2;3.8;;;;;;;24.77;24.16992;951.0887;;;;
2019/04/22 11:55:52;;;;;;;5.6;4;;;;;;;24.84;23.14844;951.0334;;;;
2019/04/22 11:58:18;;;;;;;7.3;4;;;;;;;24.65;22.76953;951.0358;;;;
2019/04/22 12:01:11;;;;;;;5.2;4.1;;;;;;;24.53;23.31152;950.9517;;;;
2019/04/22 12:03:34;;;;;;;5.6;4.1;;;;;;;24.77;23.18066;950.9802;;;;
2019/04/22 12:05:59;;;;;;;7;4.3;;;;;;;24.94;23.39258;950.9672;;;;
2019/04/22 12:08:27;;;;;;;6.4;4.3;;;;;;;25.16;23.45117;950.9055;;;;
2019/04/22 12:10:52;;;;;;;6.9;4.5;;;;;;;24.79;23.84863;950.9328;;;;
2019/04/22 12:13:17;;;;;;;8.6;5.4;;;;;;;24.05;25.8916;950.9146;;;;
2019/04/22 12:15:43;;;;;;;6.6;4.8;;;;;;;24.13;27.3125;950.8489;;;;
2019/04/22 12:18:08;;;;;;;7.7;4.5;;;;;;;24.54;28.19629;950.8102;;;;
2019/04/22 12:20:33;;;;;;;7.7;4.6;;;;;;;24.54;24.39648;950.8233;;;;
2019/04/22 12:23:00;;;;;;;6.6;4.8;;;;;;;24.45;25.36719;950.7363;;;;
2019/04/22 12:25:26;;;;;;;8;4.9;;;;;;;25.53;23.86523;950.6766;;;;
2019/04/22 12:27:51;;;;;;;9.8;5.2;;;;;;;25.19;25.02734;950.6644;;;;
2019/04/22 12:30:25;;;;;;;5.7;4.6;;;;;;;25.91;24.08789;950.644;;;;
2019/04/22 12:32:54;;;;;;;5.4;4.3;;;;;;;26.57;23.53711;950.5779;;;;
2019/04/22 12:35:21;;;;;;;5.9;4.3;;;;;;;26.36;22.84473;950.6266;;;;
2019/04/22 12:37:51;;;;;;;5.2;3.9;;;;;;;26.6;22.89258;950.5854;;;;
2019/04/22 12:40:18;;;;;;;7.6;4.3;;;;;;;26.81;23.11914;950.5034;;;;
2019/04/22 12:42:45;;;;;;;6.7;4.4;;;;;;;26.06;22.51855;950.4061;;;;
2019/04/22 12:45:10;;;;;;;5.5;4.5;;;;;;;26.39;22.30762;950.3678;;;;
2019/04/22 12:47:36;;;;;;;6.5;4.2;;;;;;;27.84;19.87207;950.278;;;;
2019/04/22 12:50:01;;;;;;;6.5;4.3;;;;;;;27.69;20.65625;950.1717;;;;
2019/04/22 12:52:26;;;;;;;5.5;4.4;;;;;;;28.03;21.41699;950.1887;;;;
2019/04/22 12:54:53;;;;;;;5.2;4.1;;;;;;;28.44;21.88086;950.1367;;;;
2019/04/22 12:57:18;;;;;;;4.4;4;;;;;;;28.5;19.88965;950.0666;;;;
2019/04/22 12:59:43;;;;;;;6.6;4;;;;;;;27.45;19.61523;950.0895;;;;
2019/04/22 13:02:08;;;;;;;6.4;4.1;;;;;;;28.49;18.57813;950.0433;;;;
2019/04/22 13:04:39;;;;;;;7.8;4.1;;;;;;;27.36;21.63672;950.0939;;;;
2019/04/22 13:07:03;;;;;;;7.2;4.1;;;;;;;28.42;19.66895;950.0002;;;;
2019/04/22 13:09:28;;;;;;;6.5;4;;;;;;;27.57;19.22461;949.9886;;;;
2019/04/22 13:12:00;;;;;;;7.6;4;;;;;;;27.14;19.74512;949.8811;;;;
2019/04/22 13:14:33;;;;;;;6;4.1;;;;;;;26.97;20.57617;949.8036;;;;
2019/04/22 13:16:58;;;;;;;5.3;3.9;;;;;;;27.38;19.89941;949.7925;;;;
2019/04/22 13:19:23;;;;;;;5.8;4;;;;;;;27.32;19.52539;949.6976;;;;
2019/04/22 13:21:48;;;;;;;5.2;3.9;;;;;;;26.5;21.14063;949.8348;;;;
2019/04/22 13:24:16;;;;;;;6.1;4;;;;;;;26.33;21.25293;949.7925;;;;
2019/04/22 13:26:40;;;;;;;6.1;3.9;;;;;;;25.58;22.43457;949.6986;;;;
2019/04/22 13:29:07;;;;;;;9.2;4.1;;;;;;;25.59;21.37207;949.6713;;;;
2019/04/22 13:31:34;;;;;;;6;3.8;;;;;;;25.08;22.7666;949.6202;;;;
2019/04/22 13:34:00;;;;;;;6;4.2;;;;;;;25.39;21.60156;949.5974;;;;
2019/04/22 13:36:29;;;;;;;8.7;3.8;;;;;;;25.03;22.45508;949.6717;;;;
2019/04/22 13:38:54;;;;;;;7.3;3.7;;;;;;;24.09;22.64551;949.6099;;;;
2019/04/22 13:41:19;;;;;;;4.3;3.9;;;;;;;24.8;21.64453;949.53;;;;
2019/04/22 13:43:44;;;;;;;7.2;3.5;;;;;;;26.6;21.9707;949.6454;;;;
2019/04/22 13:46:09;;;;;;;4.4;3.6;;;;;;;26.88;20.4043;949.6016;;;;
2019/04/22 13:48:36;;;;;;;7;3.8;;;;;;;28.37;19.30664;949.6049;;;;
2019/04/22 13:51:01;;;;;;;4.7;3.9;;;;;;;27.66;19.32422;949.5765;;;;
2019/04/22 13:53:26;;;;;;;6.6;3.7;;;;;;;27.83;18.52734;949.5694;;;;
2019/04/22 13:55:51;;;;;;;5;3.4;;;;;;;28.22;17.25879;949.4821;;;;
2019/04/22 13:58:23;;;;;;;4.6;3.3;;;;;;;27.66;16.36133;949.4715;;;;
2019/04/22 14:00:48;;;;;;;5.5;2.8;;;;;;;27.93;16.92285;949.4711;;;;
2019/04/22 14:03:26;;;;;;;3.4;3.1;;;;;;;27.55;17.38867;949.5053;;;;
2019/04/22 14:05:40;;;;;;;4.6;3.4;;;;;;;28.28;17.65723;949.3516;;;;
2019/04/22 14:08:05;;;;;;;5.5;3.5;;;;;;;27.76;18.33203;949.3342;;;;
2019/04/22 14:10:30;;;;;;;4.8;3.3;;;;;;;29.25;17.69531;949.2867;;;;
2019/04/22 14:12:55;;;;;;;3.2;2.9;;;;;;;29.39;17.25586;949.2367;;;;
2019/04/22 14:15:20;;;;;;;3.3;2.9;;;;;;;28.14;17.08789;949.2377;;;;
2019/04/22 14:17:45;;;;;;;4.7;3.8;;;;;;;27.94;18.35156;949.2108;;;;
2019/04/22 14:20:11;;;;;;;5.4;3.5;;;;;;;27.61;18.37402;949.1649;;;;
2019/04/22 14:22:36;;;;;;;8;4.3;;;;;;;27.66;18.87988;949.1506;;;;
2019/04/22 14:25:01;;;;;;;7.4;3.8;;;;;;;26.19;20.91113;949.1453;;;;
2019/04/22 14:27:26;;;;;;;5.8;3.7;;;;;;;25.32;20.57227;949.0692;;;;